Terminal Aerodrome Forecast
Issued by NWS Tulsa, OK

Home | Current Version | Previous Version | Text Only | Print | Product List | Glossary On
Versions: 1 2 3 4 5 6 7 8 9 10 11 12 13 14
000
FTUS44 KTSA 281700
TAFFSM
TAF
KFSM 281722Z 2818/2918 20010G20KT 5SM -TSRA BKN021CB OVC050
      TEMPO 2818/2822 3SM TSRA BR OVC015CB
     FM282200 14007KT P6SM VCTS BKN040CB
     FM290100 08005KT P6SM SCT050 OVC100
     FM291200 08005KT P6SM VCTS BKN050CB=

USA.gov is the U.S. government's official web portal to all federal, state and local government web resources and services.